sensor_id;sensor_type;location;lat;lon;timestamp;pressure;altitude;pressure_sealevel;temperature;humidity
9855;BME280;4966;48.112;9.282;2022-10-15T00:00:36;94225.47;;;13.92;100.00
9855;BME280;4966;48.112;9.282;2022-10-15T00:03:01;94221.84;;;13.85;100.00
9855;BME280;4966;48.112;9.282;2022-10-15T00:05:27;94216.19;;;14.00;100.00
9855;BME280;4966;48.112;9.282;2022-10-15T00:07:52;94220.13;;;14.03;100.00
9855;BME280;4966;48.112;9.282;2022-10-15T00:10:18;94226.28;;;14.26;100.00
9855;BME280;4966;48.112;9.282;2022-10-15T00:12:44;94217.38;;;14.03;100.00
9855;BME280;4966;48.112;9.282;2022-10-15T00:15:10;94225.59;;;14.03;100.00
9855;BME280;4966;48.112;9.282;2022-10-15T00:17:35;94220.88;;;14.00;100.00
9855;BME280;4966;48.112;9.282;2022-10-15T00:20:03;94220.94;;;14.03;100.00
9855;BME280;4966;48.112;9.282;2022-10-15T00:22:29;94220.31;;;14.17;100.00
9855;BME280;4966;48.112;9.282;2022-10-15T00:24:54;94217.47;;;14.10;100.00
9855;BME280;4966;48.112;9.282;2022-10-15T00:27:19;94215.81;;;14.02;100.00
9855;BME280;4966;48.112;9.282;2022-10-15T00:29:44;94220.44;;;13.98;100.00
9855;BME280;4966;48.112;9.282;2022-10-15T00:32:10;94221.06;;;14.14;100.00
9855;BME280;4966;48.112;9.282;2022-10-15T00:34:35;94219.75;;;14.04;100.00
9855;BME280;4966;48.112;9.282;2022-10-15T00:37:00;94224.38;;;14.00;100.00
9855;BME280;4966;48.112;9.282;2022-10-15T00:39:26;94220.56;;;14.39;100.00
9855;BME280;4966;48.112;9.282;2022-10-15T00:41:51;94212.09;;;14.17;100.00
9855;BME280;4966;48.112;9.282;2022-10-15T00:46:49;94212.25;;;14.28;100.00
9855;BME280;4966;48.112;9.282;2022-10-15T00:49:21;94214.88;;;14.21;100.00
9855;BME280;4966;48.112;9.282;2022-10-15T00:51:55;94207.00;;;14.16;100.00
9855;BME280;4966;48.112;9.282;2022-10-15T00:54:22;94208.13;;;14.11;100.00
9855;BME280;4966;48.112;9.282;2022-10-15T00:56:49;94196.66;;;14.32;100.00
9855;BME280;4966;48.112;9.282;2022-10-15T00:59:17;94198.13;;;14.26;100.00
9855;BME280;4966;48.112;9.282;2022-10-15T01:01:44;94201.16;;;14.17;100.00
9855;BME280;4966;48.112;9.282;2022-10-15T01:04:10;94200.59;;;14.35;100.00
9855;BME280;4966;48.112;9.282;2022-10-15T01:06:36;94205.69;;;14.36;100.00
9855;BME280;4966;48.112;9.282;2022-10-15T01:09:02;94195.75;;;14.21;100.00
9855;BME280;4966;48.112;9.282;2022-10-15T01:11:49;94191.34;;;14.13;100.00
9855;BME280;4966;48.112;9.282;2022-10-15T01:14:47;94202.56;;;14.34;100.00
9855;BME280;4966;48.112;9.282;2022-10-15T01:26:01;94197.53;;;14.43;100.00
9855;BME280;4966;48.112;9.282;2022-10-15T01:31:43;94201.47;;;14.46;100.00
9855;BME280;4966;48.112;9.282;2022-10-15T01:37:06;94191.56;;;14.31;100.00
9855;BME280;4966;48.112;9.282;2022-10-15T01:39:38;94193.13;;;14.32;100.00
9855;BME280;4966;48.112;9.282;2022-10-15T01:42:25;94193.69;;;14.14;100.00
9855;BME280;4966;48.112;9.282;2022-10-15T01:44:57;94190.72;;;14.26;100.00
9855;BME280;4966;48.112;9.282;2022-10-15T01:47:28;94195.50;;;14.03;100.00
9855;BME280;4966;48.112;9.282;2022-10-15T01:49:55;94186.34;;;14.22;100.00
9855;BME280;4966;48.112;9.282;2022-10-15T01:52:28;94184.75;;;14.51;100.00
9855;BME280;4966;48.112;9.282;2022-10-15T01:54:55;94185.38;;;14.37;100.00
9855;BME280;4966;48.112;9.282;2022-10-15T01:57:23;94178.28;;;14.33;100.00
9855;BME280;4966;48.112;9.282;2022-10-15T01:59:49;94185.66;;;14.29;100.00
9855;BME280;4966;48.112;9.282;2022-10-15T02:02:15;94181.53;;;14.42;100.00
9855;BME280;4966;48.112;9.282;2022-10-15T02:04:41;94174.28;;;14.23;100.00
9855;BME280;4966;48.112;9.282;2022-10-15T02:07:09;94179.00;;;14.60;100.00
9855;BME280;4966;48.112;9.282;2022-10-15T02:18:14;94175.97;;;14.72;100.00
9855;BME280;4966;48.112;9.282;2022-10-15T02:20:48;94176.41;;;14.40;100.00
9855;BME280;4966;48.112;9.282;2022-10-15T02:26:24;94173.81;;;14.51;100.00
9855;BME280;4966;48.112;9.282;2022-10-15T02:28:55;94173.38;;;14.49;100.00
9855;BME280;4966;48.112;9.282;2022-10-15T02:31:22;94174.75;;;14.66;100.00
9855;BME280;4966;48.112;9.282;2022-10-15T02:33:51;94176.50;;;14.85;100.00
9855;BME280;4966;48.112;9.282;2022-10-15T02:36:18;94183.03;;;14.73;100.00
9855;BME280;4966;48.112;9.282;2022-10-15T02:38:44;94179.00;;;14.60;100.00
9855;BME280;4966;48.112;9.282;2022-10-15T02:41:10;94173.09;;;14.58;100.00
9855;BME280;4966;48.112;9.282;2022-10-15T02:43:37;94183.41;;;14.72;100.00
9855;BME280;4966;48.112;9.282;2022-10-15T02:46:03;94175.69;;;14.81;100.00
9855;BME280;4966;48.112;9.282;2022-10-15T02:48:29;94174.50;;;14.82;100.00
9855;BME280;4966;48.112;9.282;2022-10-15T02:50:54;94164.72;;;14.81;100.00
9855;BME280;4966;48.112;9.282;2022-10-15T02:53:20;94165.41;;;14.71;100.00
9855;BME280;4966;48.112;9.282;2022-10-15T02:55:45;94173.28;;;14.76;100.00
9855;BME280;4966;48.112;9.282;2022-10-15T02:58:11;94171.06;;;14.88;100.00
9855;BME280;4966;48.112;9.282;2022-10-15T03:00:37;94176.47;;;14.81;100.00
9855;BME280;4966;48.112;9.282;2022-10-15T03:03:03;94181.22;;;14.88;100.00
9855;BME280;4966;48.112;9.282;2022-10-15T03:05:28;94175.03;;;14.98;100.00
9855;BME280;4966;48.112;9.282;2022-10-15T03:07:53;94190.41;;;15.10;100.00
9855;BME280;4966;48.112;9.282;2022-10-15T03:10:19;94185.28;;;15.05;100.00
9855;BME280;4966;48.112;9.282;2022-10-15T03:12:44;94192.38;;;15.13;100.00
9855;BME280;4966;48.112;9.282;2022-10-15T03:15:10;94190.69;;;14.98;100.00
9855;BME280;4966;48.112;9.282;2022-10-15T03:17:36;94195.53;;;15.15;100.00
9855;BME280;4966;48.112;9.282;2022-10-15T03:20:01;94194.91;;;14.88;100.00
9855;BME280;4966;48.112;9.282;2022-10-15T03:22:26;94196.03;;;14.80;100.00
9855;BME280;4966;48.112;9.282;2022-10-15T03:24:52;94197.72;;;14.99;100.00
9855;BME280;4966;48.112;9.282;2022-10-15T03:27:17;94197.22;;;14.82;100.00
9855;BME280;4966;48.112;9.282;2022-10-15T03:29:43;94192.38;;;15.13;100.00
9855;BME280;4966;48.112;9.282;2022-10-15T03:32:08;94196.81;;;14.84;100.00
9855;BME280;4966;48.112;9.282;2022-10-15T03:34:35;94194.63;;;14.97;100.00
9855;BME280;4966;48.112;9.282;2022-10-15T03:37:00;94195.53;;;14.71;100.00
9855;BME280;4966;48.112;9.282;2022-10-15T03:39:25;94197.59;;;14.81;100.00
9855;BME280;4966;48.112;9.282;2022-10-15T03:41:54;94197.44;;;15.07;100.00
9855;BME280;4966;48.112;9.282;2022-10-15T03:44:19;94198.06;;;14.90;100.00
9855;BME280;4966;48.112;9.282;2022-10-15T03:46:44;94202.34;;;14.87;100.00
9855;BME280;4966;48.112;9.282;2022-10-15T03:49:10;94197.44;;;15.07;100.00
9855;BME280;4966;48.112;9.282;2022-10-15T03:51:36;94197.13;;;15.20;100.00
9855;BME280;4966;48.112;9.282;2022-10-15T03:54:01;94198.91;;;14.98;100.00
9855;BME280;4966;48.112;9.282;2022-10-15T03:56:27;94204.44;;;15.01;100.00
9855;BME280;4966;48.112;9.282;2022-10-15T03:58:52;94212.91;;;14.89;100.00
9855;BME280;4966;48.112;9.282;2022-10-15T04:01:17;94211.81;;;14.97;100.00
9855;BME280;4966;48.112;9.282;2022-10-15T04:03:43;94204.22;;;15.21;100.00
9855;BME280;4966;48.112;9.282;2022-10-15T04:06:08;94197.81;;;15.06;100.00
9855;BME280;4966;48.112;9.282;2022-10-15T04:08:34;94205.41;;;15.23;100.00
9855;BME280;4966;48.112;9.282;2022-10-15T04:10:59;94210.91;;;15.27;100.00
9855;BME280;4966;48.112;9.282;2022-10-15T04:13:26;94207.03;;;15.31;100.00
9855;BME280;4966;48.112;9.282;2022-10-15T04:15:51;94206.25;;;15.31;100.00
9855;BME280;4966;48.112;9.282;2022-10-15T04:18:17;94205.31;;;15.13;100.00
9855;BME280;4966;48.112;9.282;2022-10-15T04:20:46;94208.63;;;15.36;100.00
9855;BME280;4966;48.112;9.282;2022-10-15T04:23:11;94212.31;;;15.58;100.00
9855;BME280;4966;48.112;9.282;2022-10-15T04:25:37;94218.50;;;15.44;100.00
9855;BME280;4966;48.112;9.282;2022-10-15T04:28:02;94214.34;;;15.17;100.00
9855;BME280;4966;48.112;9.282;2022-10-15T04:30:28;94222.97;;;15.19;100.00
9855;BME280;4966;48.112;9.282;2022-10-15T04:32:53;94221.50;;;15.32;100.00
9855;BME280;4966;48.112;9.282;2022-10-15T04:35:19;94216.72;;;15.22;100.00
9855;BME280;4966;48.112;9.282;2022-10-15T04:37:45;94226.03;;;15.10;100.00
9855;BME280;4966;48.112;9.282;2022-10-15T04:40:11;94225.84;;;15.33;100.00
9855;BME280;4966;48.112;9.282;2022-10-15T04:42:37;94229.41;;;15.41;100.00
9855;BME280;4966;48.112;9.282;2022-10-15T04:45:02;94224.03;;;15.55;100.00
9855;BME280;4966;48.112;9.282;2022-10-15T04:47:28;94220.59;;;15.17;100.00
9855;BME280;4966;48.112;9.282;2022-10-15T04:49:53;94229.00;;;15.35;100.00
9855;BME280;4966;48.112;9.282;2022-10-15T04:52:18;94228.00;;;15.13;100.00
9855;BME280;4966;48.112;9.282;2022-10-15T04:54:44;94235.53;;;15.23;100.00
9855;BME280;4966;48.112;9.282;2022-10-15T04:57:10;94229.66;;;15.25;100.00
9855;BME280;4966;48.112;9.282;2022-10-15T04:59:35;94231.59;;;15.21;100.00
9855;BME280;4966;48.112;9.282;2022-10-15T05:02:00;94228.63;;;15.40;100.00
9855;BME280;4966;48.112;9.282;2022-10-15T05:04:26;94239.81;;;15.21;100.00
9855;BME280;4966;48.112;9.282;2022-10-15T05:06:51;94229.66;;;15.21;100.00
9855;BME280;4966;48.112;9.282;2022-10-15T05:09:16;94234.47;;;15.39;100.00
9855;BME280;4966;48.112;9.282;2022-10-15T05:11:42;94237.94;;;15.32;100.00
9855;BME280;4966;48.112;9.282;2022-10-15T05:14:07;94229.47;;;15.48;100.00
9855;BME280;4966;48.112;9.282;2022-10-15T05:16:33;94240.53;;;15.14;100.00
9855;BME280;4966;48.112;9.282;2022-10-15T05:19:01;94238.69;;;15.25;100.00
9855;BME280;4966;48.112;9.282;2022-10-15T05:21:27;94234.91;;;15.41;100.00
9855;BME280;4966;48.112;9.282;2022-10-15T05:23:53;94245.97;;;15.51;100.00
9855;BME280;4966;48.112;9.282;2022-10-15T05:26:21;94237.28;;;15.42;100.00
9855;BME280;4966;48.112;9.282;2022-10-15T05:28:48;94246.03;;;15.14;100.00
9855;BME280;4966;48.112;9.282;2022-10-15T05:31:17;94246.03;;;15.18;100.00
9855;BME280;4966;48.112;9.282;2022-10-15T05:33:43;94242.22;;;15.26;100.00
9855;BME280;4966;48.112;9.282;2022-10-15T05:38:45;94247.72;;;15.29;100.00
9855;BME280;4966;48.112;9.282;2022-10-15T05:41:10;94254.88;;;15.00;100.00
9855;BME280;4966;48.112;9.282;2022-10-15T05:43:36;94254.50;;;15.43;100.00
9855;BME280;4966;48.112;9.282;2022-10-15T05:46:02;94267.66;;;15.26;100.00
9855;BME280;4966;48.112;9.282;2022-10-15T05:48:27;94269.75;;;15.40;100.00
9855;BME280;4966;48.112;9.282;2022-10-15T05:50:56;94264.63;;;15.35;100.00
9855;BME280;4966;48.112;9.282;2022-10-15T05:53:24;94273.91;;;15.23;100.00
9855;BME280;4966;48.112;9.282;2022-10-15T05:55:52;94272.53;;;15.47;100.00
9855;BME280;4966;48.112;9.282;2022-10-15T05:58:17;94274.81;;;15.38;100.00
9855;BME280;4966;48.112;9.282;2022-10-15T06:00:42;94278.34;;;15.39;100.00
9855;BME280;4966;48.112;9.282;2022-10-15T06:03:11;94278.72;;;15.37;100.00
9855;BME280;4966;48.112;9.282;2022-10-15T06:05:37;94279.13;;;15.39;100.00
9855;BME280;4966;48.112;9.282;2022-10-15T06:08:02;94284.75;;;15.13;100.00
9855;BME280;4966;48.112;9.282;2022-10-15T06:10:28;94281.63;;;15.14;100.00
9855;BME280;4966;48.112;9.282;2022-10-15T06:12:53;94287.41;;;15.46;100.00
9855;BME280;4966;48.112;9.282;2022-10-15T06:15:18;94286.34;;;15.17;100.00
9855;BME280;4966;48.112;9.282;2022-10-15T06:17:44;94295.81;;;15.23;100.00
9855;BME280;4966;48.112;9.282;2022-10-15T06:20:10;94297.03;;;15.29;100.00
9855;BME280;4966;48.112;9.282;2022-10-15T06:22:36;94303.47;;;15.48;100.00
9855;BME280;4966;48.112;9.282;2022-10-15T06:25:01;94308.19;;;15.06;100.00
9855;BME280;4966;48.112;9.282;2022-10-15T06:27:26;94297.78;;;15.23;100.00
9855;BME280;4966;48.112;9.282;2022-10-15T06:29:52;94305.53;;;15.17;100.00
9855;BME280;4966;48.112;9.282;2022-10-15T06:32:17;94302.72;;;15.51;100.00
9855;BME280;4966;48.112;9.282;2022-10-15T06:34:43;94307.28;;;14.99;100.00
9855;BME280;4966;48.112;9.282;2022-10-15T06:37:08;94309.81;;;15.15;100.00
9855;BME280;4966;48.112;9.282;2022-10-15T06:39:34;94316.28;;;15.33;100.00
9855;BME280;4966;48.112;9.282;2022-10-15T06:41:59;94322.22;;;15.01;100.00
9855;BME280;4966;48.112;9.282;2022-10-15T06:44:25;94316.34;;;15.40;100.00
9855;BME280;4966;48.112;9.282;2022-10-15T06:46:50;94315.66;;;15.13;100.00
9855;BME280;4966;48.112;9.282;2022-10-15T06:49:15;94326.34;;;15.22;100.00
9855;BME280;4966;48.112;9.282;2022-10-15T06:51:41;94325.50;;;15.18;100.00
9855;BME280;4966;48.112;9.282;2022-10-15T06:54:06;94329.41;;;15.17;100.00
9855;BME280;4966;48.112;9.282;2022-10-15T06:56:32;94334.97;;;15.24;100.00
9855;BME280;4966;48.112;9.282;2022-10-15T06:58:57;94341.94;;;15.18;100.00
9855;BME280;4966;48.112;9.282;2022-10-15T07:01:23;94347.09;;;15.23;100.00
9855;BME280;4966;48.112;9.282;2022-10-15T07:03:50;94356.75;;;15.47;100.00
9855;BME280;4966;48.112;9.282;2022-10-15T07:06:16;94365.41;;;15.52;100.00
9855;BME280;4966;48.112;9.282;2022-10-15T07:08:41;94365.75;;;15.51;100.00
9855;BME280;4966;48.112;9.282;2022-10-15T07:11:08;94363.16;;;15.24;100.00
9855;BME280;4966;48.112;9.282;2022-10-15T07:13:33;94359.41;;;15.40;100.00
9855;BME280;4966;48.112;9.282;2022-10-15T07:16:05;94355.44;;;15.74;100.00
9855;BME280;4966;48.112;9.282;2022-10-15T07:18:32;94356.03;;;15.57;100.00
9855;BME280;4966;48.112;9.282;2022-10-15T07:20:57;94356.13;;;15.68;100.00
9855;BME280;4966;48.112;9.282;2022-10-15T07:23:23;94358.94;;;15.71;100.00
9855;BME280;4966;48.112;9.282;2022-10-15T07:25:48;94356.81;;;15.99;100.00
9855;BME280;4966;48.112;9.282;2022-10-15T07:28:13;94354.72;;;15.85;100.00
9855;BME280;4966;48.112;9.282;2022-10-15T07:30:39;94356.09;;;16.09;100.00
9855;BME280;4966;48.112;9.282;2022-10-15T07:33:04;94359.94;;;15.97;100.00
9855;BME280;4966;48.112;9.282;2022-10-15T07:35:30;94363.19;;;16.13;100.00
9855;BME280;4966;48.112;9.282;2022-10-15T07:37:59;94370.00;;;16.34;100.00
9855;BME280;4966;48.112;9.282;2022-10-15T07:40:25;94362.44;;;16.20;100.00
9855;BME280;4966;48.112;9.282;2022-10-15T07:42:54;94355.81;;;16.25;100.00
9855;BME280;4966;48.112;9.282;2022-10-15T07:45:20;94360.72;;;15.98;100.00
9855;BME280;4966;48.112;9.282;2022-10-15T07:47:46;94366.47;;;16.33;100.00
9855;BME280;4966;48.112;9.282;2022-10-15T07:50:11;94373.66;;;16.56;100.00
9855;BME280;4966;48.112;9.282;2022-10-15T07:52:36;94371.41;;;16.13;100.00
9855;BME280;4966;48.112;9.282;2022-10-15T07:55:02;94377.81;;;16.28;100.00
9855;BME280;4966;48.112;9.282;2022-10-15T07:57:27;94382.16;;;16.36;100.00
9855;BME280;4966;48.112;9.282;2022-10-15T07:59:53;94380.94;;;16.30;100.00
9855;BME280;4966;48.112;9.282;2022-10-15T08:02:18;94377.19;;;16.56;99.16
9855;BME280;4966;48.112;9.282;2022-10-15T08:04:44;94375.94;;;16.47;99.37
9855;BME280;4966;48.112;9.282;2022-10-15T08:07:10;94372.94;;;16.66;98.84
9855;BME280;4966;48.112;9.282;2022-10-15T08:09:35;94380.75;;;16.61;98.51
9855;BME280;4966;48.112;9.282;2022-10-15T08:12:01;94378.56;;;16.84;97.83
9855;BME280;4966;48.112;9.282;2022-10-15T08:14:26;94386.88;;;17.02;96.96
9855;BME280;4966;48.112;9.282;2022-10-15T08:16:52;94397.50;;;17.07;97.27
9855;BME280;4966;48.112;9.282;2022-10-15T08:19:17;94393.69;;;17.44;95.20
9855;BME280;4966;48.112;9.282;2022-10-15T08:21:43;94390.56;;;17.49;96.05
9855;BME280;4966;48.112;9.282;2022-10-15T08:24:09;94394.16;;;17.68;94.84
9855;BME280;4966;48.112;9.282;2022-10-15T08:26:35;94401.19;;;17.54;93.20
9855;BME280;4966;48.112;9.282;2022-10-15T08:29:00;94401.63;;;17.74;93.93
9855;BME280;4966;48.112;9.282;2022-10-15T08:31:26;94396.09;;;17.63;91.77
9855;BME280;4966;48.112;9.282;2022-10-15T08:33:52;94396.56;;;17.87;91.42
9855;BME280;4966;48.112;9.282;2022-10-15T08:36:17;94402.06;;;17.94;90.56
9855;BME280;4966;48.112;9.282;2022-10-15T08:38:43;94407.03;;;17.31;94.05
9855;BME280;4966;48.112;9.282;2022-10-15T08:46:48;94408.34;;;17.80;91.16
9855;BME280;4966;48.112;9.282;2022-10-15T08:51:57;94407.13;;;18.75;85.79
9855;BME280;4966;48.112;9.282;2022-10-15T08:54:28;94407.13;;;18.67;84.59
9855;BME280;4966;48.112;9.282;2022-10-15T08:59:55;94414.22;;;18.83;83.94
9855;BME280;4966;48.112;9.282;2022-10-15T09:02:36;94407.19;;;18.49;84.29
9855;BME280;4966;48.112;9.282;2022-10-15T09:07:49;94421.75;;;18.28;83.12
9855;BME280;4966;48.112;9.282;2022-10-15T09:10:30;94423.69;;;17.81;83.35
9855;BME280;4966;48.112;9.282;2022-10-15T09:15:46;94427.56;;;17.70;85.59
9855;BME280;4966;48.112;9.282;2022-10-15T09:18:19;94433.22;;;17.07;88.51
9855;BME280;4966;48.112;9.282;2022-10-15T09:20:46;94437.50;;;17.05;89.81
9855;BME280;4966;48.112;9.282;2022-10-15T09:23:20;94419.84;;;17.02;88.84
9855;BME280;4966;48.112;9.282;2022-10-15T09:25:56;94418.75;;;17.17;85.51
9855;BME280;4966;48.112;9.282;2022-10-15T09:28:28;94415.59;;;17.15;87.69
9855;BME280;4966;48.112;9.282;2022-10-15T09:30:57;94412.16;;;17.43;84.81
9855;BME280;4966;48.112;9.282;2022-10-15T09:33:40;94422.34;;;17.36;85.37
9855;BME280;4966;48.112;9.282;2022-10-15T09:36:47;94428.22;;;17.38;86.95
9855;BME280;4966;48.112;9.282;2022-10-15T09:42:30;94435.44;;;17.75;83.15
9855;BME280;4966;48.112;9.282;2022-10-15T09:45:01;94437.06;;;18.40;81.42
9855;BME280;4966;48.112;9.282;2022-10-15T09:47:33;94422.16;;;18.13;78.61
9855;BME280;4966;48.112;9.282;2022-10-15T09:49:59;94426.84;;;18.34;78.79
9855;BME280;4966;48.112;9.282;2022-10-15T09:58:00;94430.41;;;18.20;77.06
9855;BME280;4966;48.112;9.282;2022-10-15T10:03:22;94429.22;;;18.14;77.84
9855;BME280;4966;48.112;9.282;2022-10-15T10:05:49;94437.09;;;18.44;75.48
9855;BME280;4966;48.112;9.282;2022-10-15T10:10:40;94433.94;;;18.78;74.12
9855;BME280;4966;48.112;9.282;2022-10-15T10:13:17;94423.31;;;18.19;76.47
9855;BME280;4966;48.112;9.282;2022-10-15T10:15:45;94449.69;;;18.34;75.85
9855;BME280;4966;48.112;9.282;2022-10-15T10:18:19;94447.69;;;18.17;75.56
9855;BME280;4966;48.112;9.282;2022-10-15T10:20:53;94452.81;;;18.50;74.17
9855;BME280;4966;48.112;9.282;2022-10-15T10:25:57;94457.53;;;18.61;74.92
9855;BME280;4966;48.112;9.282;2022-10-15T10:31:11;94457.53;;;18.28;75.69
9855;BME280;4966;48.112;9.282;2022-10-15T10:33:46;94457.94;;;18.59;74.71
9855;BME280;4966;48.112;9.282;2022-10-15T10:36:26;94460.69;;;18.34;76.40
9855;BME280;4966;48.112;9.282;2022-10-15T10:47:11;94460.69;;;18.91;74.02
9855;BME280;4966;48.112;9.282;2022-10-15T10:49:42;94460.94;;;19.37;70.42
9855;BME280;4966;48.112;9.282;2022-10-15T10:52:33;94459.47;;;19.00;73.70
9855;BME280;4966;48.112;9.282;2022-10-15T10:55:16;94459.47;;;18.75;75.50
9855;BME280;4966;48.112;9.282;2022-10-15T10:57:58;94463.06;;;18.61;76.85
9855;BME280;4966;48.112;9.282;2022-10-15T11:00:44;94452.81;;;18.47;76.13
9855;BME280;4966;48.112;9.282;2022-10-15T11:05:52;94460.69;;;18.41;77.36
9855;BME280;4966;48.112;9.282;2022-10-15T11:08:31;94462.66;;;18.66;75.50
9855;BME280;4966;48.112;9.282;2022-10-15T11:13:53;94465.03;;;18.78;74.84
9855;BME280;4966;48.112;9.282;2022-10-15T11:16:32;94449.84;;;19.51;71.10
9855;BME280;4966;48.112;9.282;2022-10-15T11:19:06;94456.50;;;19.61;70.09
9855;BME280;4966;48.112;9.282;2022-10-15T11:21:59;94458.31;;;19.96;68.29
9855;BME280;4966;48.112;9.282;2022-10-15T11:46:29;94440.91;;;21.41;58.20
9855;BME280;4966;48.112;9.282;2022-10-15T11:49:23;94429.66;;;24.77;50.48
9855;BME280;4966;48.112;9.282;2022-10-15T11:54:25;94430.28;;;26.78;43.31
9855;BME280;4966;48.112;9.282;2022-10-15T11:56:54;94422.84;;;27.45;44.14
9855;BME280;4966;48.112;9.282;2022-10-15T11:59:46;94419.00;;;29.17;39.11
9855;BME280;4966;48.112;9.282;2022-10-15T12:02:21;94426.06;;;27.65;40.19
9855;BME280;4966;48.112;9.282;2022-10-15T12:04:52;94412.56;;;24.62;47.12
9855;BME280;4966;48.112;9.282;2022-10-15T12:07:29;94423.00;;;22.82;51.28
9855;BME280;4966;48.112;9.282;2022-10-15T12:10:12;94423.53;;;21.72;54.69
9855;BME280;4966;48.112;9.282;2022-10-15T12:21:00;94407.81;;;21.92;53.58
9855;BME280;4966;48.112;9.282;2022-10-15T12:23:39;94408.53;;;21.96;55.04
9855;BME280;4966;48.112;9.282;2022-10-15T12:28:51;94405.47;;;21.25;56.15
9855;BME280;4966;48.112;9.282;2022-10-15T12:31:17;94406.63;;;21.28;55.95
9855;BME280;4966;48.112;9.282;2022-10-15T12:33:49;94402.84;;;21.49;56.28
9855;BME280;4966;48.112;9.282;2022-10-15T12:39:06;94397.72;;;21.48;54.87
9855;BME280;4966;48.112;9.282;2022-10-15T12:41:47;94400.56;;;21.40;55.12
9855;BME280;4966;48.112;9.282;2022-10-15T12:44:23;94402.84;;;21.15;55.99
9855;BME280;4966;48.112;9.282;2022-10-15T12:46:49;94402.25;;;20.51;58.68
9855;BME280;4966;48.112;9.282;2022-10-15T12:51:57;94399.56;;;21.23;57.42
9855;BME280;4966;48.112;9.282;2022-10-15T12:54:44;94390.50;;;20.85;59.78
9855;BME280;4966;48.112;9.282;2022-10-15T13:00:26;94388.50;;;20.48;60.26
9855;BME280;4966;48.112;9.282;2022-10-15T13:02:49;94393.22;;;19.98;62.10
9855;BME280;4966;48.112;9.282;2022-10-15T13:05:40;94396.41;;;19.97;62.63
9855;BME280;4966;48.112;9.282;2022-10-15T13:08:14;94387.03;;;20.36;61.72
9855;BME280;4966;48.112;9.282;2022-10-15T13:10:49;94398.09;;;20.77;60.32
9855;BME280;4966;48.112;9.282;2022-10-15T13:13:19;94397.91;;;20.57;60.11
9855;BME280;4966;48.112;9.282;2022-10-15T13:16:11;94398.56;;;21.10;58.35
9855;BME280;4966;48.112;9.282;2022-10-15T13:18:38;94406.81;;;22.06;57.27
9855;BME280;4966;48.112;9.282;2022-10-15T13:21:05;94400.13;;;22.03;55.70
9855;BME280;4966;48.112;9.282;2022-10-15T13:23:32;94397.56;;;22.16;55.35
9855;BME280;4966;48.112;9.282;2022-10-15T13:26:17;94401.31;;;21.10;58.57
9855;BME280;4966;48.112;9.282;2022-10-15T13:28:44;94414.00;;;20.66;60.32
9855;BME280;4966;48.112;9.282;2022-10-15T13:31:24;94411.66;;;20.65;60.58
9855;BME280;4966;48.112;9.282;2022-10-15T13:33:52;94398.94;;;20.71;60.83
9855;BME280;4966;48.112;9.282;2022-10-15T13:36:22;94393.09;;;21.03;61.90
9855;BME280;4966;48.112;9.282;2022-10-15T13:38:57;94391.25;;;21.23;58.47
9855;BME280;4966;48.112;9.282;2022-10-15T13:41:41;94388.38;;;21.34;58.81
9855;BME280;4966;48.112;9.282;2022-10-15T13:44:19;94386.72;;;20.72;60.30
9855;BME280;4966;48.112;9.282;2022-10-15T13:46:45;94386.41;;;20.63;62.00
9855;BME280;4966;48.112;9.282;2022-10-15T13:49:12;94388.25;;;21.45;58.91
9855;BME280;4966;48.112;9.282;2022-10-15T13:51:41;94382.78;;;22.73;54.25
9855;BME280;4966;48.112;9.282;2022-10-15T13:54:15;94375.56;;;23.20;54.41
9855;BME280;4966;48.112;9.282;2022-10-15T13:56:43;94370.06;;;22.29;53.66
9855;BME280;4966;48.112;9.282;2022-10-15T13:59:14;94366.16;;;21.99;54.58
9855;BME280;4966;48.112;9.282;2022-10-15T14:01:45;94378.50;;;21.02;58.15
9855;BME280;4966;48.112;9.282;2022-10-15T14:04:17;94377.53;;;20.82;59.03
9855;BME280;4966;48.112;9.282;2022-10-15T14:06:55;94388.13;;;20.42;60.56
9855;BME280;4966;48.112;9.282;2022-10-15T14:09:28;94391.25;;;19.99;61.78
9855;BME280;4966;48.112;9.282;2022-10-15T14:11:55;94387.44;;;19.79;62.72
9855;BME280;4966;48.112;9.282;2022-10-15T14:14:34;94379.69;;;19.48;64.05
9855;BME280;4966;48.112;9.282;2022-10-15T14:17:09;94386.06;;;19.34;65.38
9855;BME280;4966;48.112;9.282;2022-10-15T14:19:37;94392.00;;;19.29;65.30
9855;BME280;4966;48.112;9.282;2022-10-15T14:22:04;94384.06;;;19.49;65.40
9855;BME280;4966;48.112;9.282;2022-10-15T14:24:33;94388.72;;;19.56;66.07
9855;BME280;4966;48.112;9.282;2022-10-15T14:27:12;94386.97;;;19.94;65.28
9855;BME280;4966;48.112;9.282;2022-10-15T14:29:41;94374.72;;;19.95;64.07
9855;BME280;4966;48.112;9.282;2022-10-15T14:32:29;94385.47;;;19.79;64.63
9855;BME280;4966;48.112;9.282;2022-10-15T14:34:59;94388.78;;;19.42;66.74
9855;BME280;4966;48.112;9.282;2022-10-15T14:42:34;94390.44;;;19.28;67.02
9855;BME280;4966;48.112;9.282;2022-10-15T14:47:38;94388.13;;;19.12;69.55
9855;BME280;4966;48.112;9.282;2022-10-15T14:50:04;94386.22;;;19.06;68.17
9855;BME280;4966;48.112;9.282;2022-10-15T14:52:30;94392.19;;;18.83;69.59
9855;BME280;4966;48.112;9.282;2022-10-15T14:55:06;94393.38;;;18.71;72.75
9855;BME280;4966;48.112;9.282;2022-10-15T14:57:37;94391.81;;;18.63;74.64
9855;BME280;4966;48.112;9.282;2022-10-15T15:00:31;94384.34;;;18.53;73.51
9855;BME280;4966;48.112;9.282;2022-10-15T15:03:04;94391.00;;;18.80;72.15
9855;BME280;4966;48.112;9.282;2022-10-15T15:05:43;94390.25;;;18.51;72.38
9855;BME280;4966;48.112;9.282;2022-10-15T15:08:09;94387.09;;;18.60;72.78
9855;BME280;4966;48.112;9.282;2022-10-15T15:10:34;94383.53;;;18.81;72.43
9855;BME280;4966;48.112;9.282;2022-10-15T15:12:59;94388.25;;;18.62;72.52
9855;BME280;4966;48.112;9.282;2022-10-15T15:15:25;94389.81;;;18.88;72.00
9855;BME280;4966;48.112;9.282;2022-10-15T15:17:51;94391.78;;;18.74;70.82
9855;BME280;4966;48.112;9.282;2022-10-15T15:20:18;94395.72;;;18.69;71.15
9855;BME280;4966;48.112;9.282;2022-10-15T15:22:45;94398.47;;;18.69;71.40
9855;BME280;4966;48.112;9.282;2022-10-15T15:25:19;94405.56;;;18.88;71.33
9855;BME280;4966;48.112;9.282;2022-10-15T15:27:45;94403.19;;;18.86;70.56
9855;BME280;4966;48.112;9.282;2022-10-15T15:30:19;94400.38;;;19.08;69.79
9855;BME280;4966;48.112;9.282;2022-10-15T15:32:46;94403.88;;;19.23;68.95
9855;BME280;4966;48.112;9.282;2022-10-15T15:35:24;94400.59;;;19.49;67.91
9855;BME280;4966;48.112;9.282;2022-10-15T15:37:51;94400.66;;;19.31;68.53